Time;durP1;ratioP1;P1;durP2;ratioP2;P2;SDS_P1;SDS_P2;PMS_P1;PMS_P2;Temp;Humidity;BMP_temperature;BMP_pressure;BME280_temperature;BME280_humidity;BME280_pressure;Samples;Min_cycle;Max_cycle;Signal;HPM_P1;HPM_P2
2024/01/10 00:02:23;;;;;;;9.18;4.68;;;;;;;-2.40;32.68;102562.59;4985579;28;20042;-73
2024/01/10 00:04:51;;;;;;;8.43;4.82;;;;;;;-2.40;33.04;102563.47;5008291;28;20034;-73
2024/01/10 00:07:19;;;;;;;11.05;5.70;;;;;;;-2.41;32.85;102556.31;4991090;28;20054;-73
2024/01/10 00:09:47;;;;;;;8.85;5.70;;;;;;;-2.40;32.81;102551.84;5010204;28;20042;-73
2024/01/10 00:12:15;;;;;;;8.93;5.45;;;;;;;-2.41;32.52;102550.97;5012567;28;20104;-73
2024/01/10 00:17:33;;;;;;;9.75;5.68;;;;;;;-2.43;32.67;102550.09;5010425;28;20123;-73
2024/01/10 00:20:01;;;;;;;9.02;5.43;;;;;;;-2.45;32.76;102546.50;4988717;28;20133;-74
2024/01/10 00:22:29;;;;;;;8.90;5.53;;;;;;;-2.44;32.55;102544.72;5001659;28;20428;-74
2024/01/10 00:24:56;;;;;;;9.90;5.40;;;;;;;-2.46;32.78;102539.41;5005384;28;20588;-73
2024/01/10 00:27:24;;;;;;;10.23;5.75;;;;;;;-2.47;32.75;102542.97;4996772;28;20589;-73
2024/01/10 00:29:52;;;;;;;10.00;5.78;;;;;;;-2.51;32.56;102530.47;4979263;28;20053;-74
2024/01/10 00:32:20;;;;;;;10.85;6.38;;;;;;;-2.51;32.73;102524.22;4993859;28;20042;-74
2024/01/10 00:34:50;;;;;;;10.32;6.10;;;;;;;-2.53;32.40;102521.53;5001150;28;20310;-73
2024/01/10 00:37:18;;;;;;;10.77;6.25;;;;;;;-2.54;32.50;102517.13;4998943;28;20044;-74
2024/01/10 00:39:45;;;;;;;9.85;5.93;;;;;;;-2.55;32.81;102520.69;5011741;28;20369;-73
2024/01/10 00:42:13;;;;;;;8.25;5.22;;;;;;;-2.56;32.82;102518.91;5011766;28;20034;-74
2024/01/10 00:44:41;;;;;;;10.20;5.68;;;;;;;-2.55;32.99;102523.38;4996039;28;20056;-73
2024/01/10 00:47:11;;;;;;;9.63;5.43;;;;;;;-2.56;33.09;102520.69;5012191;28;20046;-73
2024/01/10 00:49:39;;;;;;;10.15;5.95;;;;;;;-2.58;32.52;102526.06;4994170;28;20053;-73
2024/01/10 00:52:08;;;;;;;9.90;5.32;;;;;;;-2.57;32.81;102519.81;4994094;28;20046;-73
2024/01/10 00:54:36;;;;;;;10.38;6.32;;;;;;;-2.60;32.92;102525.16;4990712;28;20050;-73
2024/01/10 00:57:03;;;;;;;9.75;5.80;;;;;;;-2.58;32.68;102527.84;4997747;28;20115;-73
2024/01/10 00:59:31;;;;;;;10.48;5.65;;;;;;;-2.59;33.10;102532.31;5020071;28;20045;-74
2024/01/10 01:01:59;;;;;;;12.05;5.70;;;;;;;-2.58;32.52;102522.50;4989208;28;20143;-73
2024/01/10 01:04:27;;;;;;;10.35;5.00;;;;;;;-2.56;32.71;102526.94;5010957;28;20456;-73
2024/01/10 01:06:55;;;;;;;8.50;5.00;;;;;;;-2.55;32.87;102526.06;4994017;28;20543;-73
2024/01/10 01:09:24;;;;;;;8.80;5.10;;;;;;;-2.51;32.95;102526.91;4974502;28;20060;-73
2024/01/10 01:11:52;;;;;;;9.23;4.88;;;;;;;-2.50;33.03;102524.22;5000791;28;20130;-74
2024/01/10 01:14:20;;;;;;;10.43;5.30;;;;;;;-2.49;33.06;102519.75;4991564;28;20105;-74
2024/01/10 01:16:48;;;;;;;10.35;5.10;;;;;;;-2.45;32.95;102513.47;5003587;28;20042;-73
2024/01/10 01:19:16;;;;;;;8.02;4.75;;;;;;;-2.42;32.92;102521.47;5006601;28;20072;-73
2024/01/10 01:21:45;;;;;;;10.80;5.20;;;;;;;-2.40;32.90;102517.91;4983448;28;20104;-73
2024/01/10 01:24:13;;;;;;;9.70;5.13;;;;;;;-2.38;32.83;102513.41;4985819;28;20518;-73
2024/01/10 01:26:42;;;;;;;8.60;4.68;;;;;;;-2.35;33.01;102520.53;5007979;28;20045;-74
2024/01/10 01:29:10;;;;;;;10.88;4.97;;;;;;;-2.34;32.92;102519.63;5008367;28;20512;-73
2024/01/10 01:31:38;;;;;;;9.38;5.15;;;;;;;-2.32;32.83;102518.72;5008106;28;20126;-73
2024/01/10 01:34:06;;;;;;;7.70;4.72;;;;;;;-2.30;32.80;102507.09;4999541;28;20042;-74
2024/01/10 01:36:34;;;;;;;9.45;5.28;;;;;;;-2.30;32.74;102515.16;5009358;28;20038;-73
2024/01/10 01:39:03;;;;;;;9.82;5.53;;;;;;;-2.28;32.60;102510.66;5010862;28;20049;-73
2024/01/10 01:41:31;;;;;;;7.40;4.47;;;;;;;-2.29;32.86;102515.16;4993543;28;20041;-73
2024/01/10 01:44:00;;;;;;;8.48;4.78;;;;;;;-2.27;32.81;102509.75;4989832;28;20466;-73
2024/01/10 01:46:29;;;;;;;8.23;4.60;;;;;;;-2.25;32.76;102511.50;4991961;28;20051;-73
2024/01/10 01:48:57;;;;;;;9.15;4.88;;;;;;;-2.25;32.73;102508.84;4977720;28;20413;-73
2024/01/10 01:51:28;;;;;;;8.85;4.80;;;;;;;-2.21;32.47;102509.72;4984534;28;20391;-74
2024/01/10 01:53:57;;;;;;;9.68;5.00;;;;;;;-2.22;32.47;102502.56;4991697;28;20081;-73
2024/01/10 01:56:25;;;;;;;9.38;5.20;;;;;;;-2.23;32.74;102504.34;4984279;28;20080;-74
2024/01/10 01:58:55;;;;;;;8.98;5.10;;;;;;;-2.23;32.72;102504.34;5003289;28;20097;-73
2024/01/10 02:01:24;;;;;;;10.95;5.05;;;;;;;-2.23;32.73;102501.69;5003434;28;20232;-73
2024/01/10 02:03:52;;;;;;;8.43;5.25;;;;;;;-2.26;32.52;102495.44;5001277;28;20046;-73
2024/01/10 02:06:20;;;;;;;8.85;4.70;;;;;;;-2.26;32.82;102501.69;4992648;28;20574;-74
2024/01/10 02:08:49;;;;;;;9.65;5.30;;;;;;;-2.26;32.42;102496.31;5010380;28;20046;-73
2024/01/10 02:11:16;;;;;;;8.55;5.05;;;;;;;-2.28;32.66;102489.22;5009628;28;20065;-73
2024/01/10 02:13:45;;;;;;;7.90;4.55;;;;;;;-2.29;32.45;102495.47;5010320;28;20072;-74
2024/01/10 02:16:13;;;;;;;8.27;4.65;;;;;;;-2.29;32.77;102495.47;5002719;28;20039;-74
2024/01/10 02:18:42;;;;;;;9.15;4.95;;;;;;;-2.28;32.35;102494.59;4993748;28;20034;-74
2024/01/10 02:21:10;;;;;;;9.43;5.20;;;;;;;-2.28;32.77;102489.22;5000974;28;20050;-74
2024/01/10 02:23:38;;;;;;;8.52;4.85;;;;;;;-2.28;33.02;102490.06;4993033;28;20096;-74
2024/01/10 02:26:08;;;;;;;8.93;4.72;;;;;;;-2.25;32.83;102494.53;4989602;28;20584;-74
2024/01/10 02:28:36;;;;;;;9.63;5.20;;;;;;;-2.27;32.56;102483.81;4990283;28;20050;-74
2024/01/10 02:31:04;;;;;;;8.98;4.82;;;;;;;-2.25;32.79;102473.06;4990539;28;20572;-74
2024/01/10 02:33:33;;;;;;;6.95;4.97;;;;;;;-2.24;32.54;102472.19;5006317;28;20069;-73
2024/01/10 02:36:01;;;;;;;8.70;5.13;;;;;;;-2.23;32.81;102476.66;5001605;28;20092;-74
2024/01/10 02:38:29;;;;;;;10.70;5.57;;;;;;;-2.25;32.84;102476.66;5010245;28;20092;-74
2024/01/10 02:40:57;;;;;;;8.77;4.68;;;;;;;-2.25;32.64;102479.34;5006885;28;20403;-74
2024/01/10 02:43:26;;;;;;;8.50;4.65;;;;;;;-2.24;32.50;102470.38;4991993;28;20046;-74
2024/01/10 02:45:54;;;;;;;8.70;4.65;;;;;;;-2.25;32.75;102475.75;5002461;28;20101;-74
2024/01/10 02:48:22;;;;;;;8.38;5.05;;;;;;;-2.25;32.53;102478.44;5008138;28;20049;-74
2024/01/10 02:50:50;;;;;;;10.93;5.15;;;;;;;-2.25;32.41;102481.13;4989386;28;20041;-73
2024/01/10 02:53:18;;;;;;;8.88;5.15;;;;;;;-2.25;32.53;102478.44;4998720;28;20046;-73
2024/01/10 02:55:46;;;;;;;8.95;4.68;;;;;;;-2.24;32.63;102489.16;4992504;28;20042;-74
2024/01/10 02:58:14;;;;;;;7.90;4.50;;;;;;;-2.24;32.87;102482.91;5001321;28;20545;-74
2024/01/10 03:00:43;;;;;;;8.93;5.10;;;;;;;-2.22;32.69;102483.78;5006023;28;20049;-74
2024/01/10 03:03:12;;;;;;;9.18;4.93;;;;;;;-2.23;32.59;102482.00;5005474;28;20077;-74
2024/01/10 03:05:40;;;;;;;9.27;4.75;;;;;;;-2.23;32.83;102482.91;4987438;28;20073;-74
2024/01/10 03:08:08;;;;;;;8.75;4.80;;;;;;;-2.22;32.88;102473.97;5007736;28;20124;-73
2024/01/10 03:10:36;;;;;;;8.95;4.85;;;;;;;-2.21;32.82;102475.75;5003547;28;20668;-74
2024/01/10 03:13:04;;;;;;;7.53;4.95;;;;;;;-2.21;32.65;102472.16;5005678;28;20577;-74
2024/01/10 03:15:32;;;;;;;7.65;4.38;;;;;;;-2.21;32.97;102464.13;4991194;28;20117;-73
2024/01/10 03:18:01;;;;;;;8.85;4.90;;;;;;;-2.21;32.70;102464.13;5008886;28;20402;-74
2024/01/10 03:20:30;;;;;;;9.63;5.03;;;;;;;-2.22;32.67;102457.88;4984761;28;20092;-74
2024/01/10 03:22:58;;;;;;;8.85;4.75;;;;;;;-2.24;32.63;102466.81;5000165;28;20061;-74
2024/01/10 03:25:26;;;;;;;7.57;4.93;;;;;;;-2.26;32.59;102460.56;5001241;28;20433;-74
2024/01/10 03:27:54;;;;;;;9.15;5.38;;;;;;;-2.26;32.71;102469.50;4991017;28;20149;-74
2024/01/10 03:30:24;;;;;;;8.45;4.40;;;;;;;-2.27;32.36;102466.84;4991116;28;20386;-73
2024/01/10 03:32:52;;;;;;;8.73;5.07;;;;;;;-2.28;32.33;102465.94;5001766;28;20112;-74
2024/01/10 03:35:21;;;;;;;9.68;5.03;;;;;;;-2.27;32.19;102469.50;5004477;28;20096;-73
2024/01/10 03:37:49;;;;;;;8.82;5.00;;;;;;;-2.29;32.53;102460.63;4998309;28;20057;-73
2024/01/10 03:40:17;;;;;;;9.48;5.40;;;;;;;-2.32;32.11;102462.41;5004749;28;20056;-74
2024/01/10 03:42:45;;;;;;;10.15;5.30;;;;;;;-2.33;32.43;102460.63;5008840;28;20133;-74
2024/01/10 03:45:16;;;;;;;9.88;5.15;;;;;;;-2.34;32.25;102464.22;5011338;28;20459;-74
2024/01/10 03:47:49;;;;;;;9.65;5.03;;;;;;;-2.36;32.29;102468.69;5006121;28;20507;-74
2024/01/10 03:50:19;;;;;;;9.25;4.85;;;;;;;-2.35;32.09;102467.78;5020099;28;20069;-73
2024/01/10 03:52:49;;;;;;;9.82;5.20;;;;;;;-2.38;32.23;102457.13;5009899;28;20293;-74
2024/01/10 03:55:17;;;;;;;11.48;6.05;;;;;;;-2.41;32.47;102454.44;4987318;28;20042;-74
2024/01/10 03:57:45;;;;;;;11.40;5.82;;;;;;;-2.41;32.07;102467.84;5006978;28;20046;-74
2024/01/10 04:00:13;;;;;;;9.75;5.80;;;;;;;-2.41;32.39;102473.22;5005639;28;20096;-73
2024/01/10 04:02:41;;;;;;;7.78;4.45;;;;;;;-2.42;32.21;102471.44;5007660;28;20050;-73
2024/01/10 04:05:11;;;;;;;10.77;5.47;;;;;;;-2.45;32.19;102463.41;5012290;28;20042;-73
2024/01/10 04:07:42;;;;;;;9.68;5.88;;;;;;;-2.46;32.28;102463.44;4994495;28;20057;-73
2024/01/10 04:10:13;;;;;;;8.93;5.68;;;;;;;-2.51;32.02;102463.47;4994040;28;20054;-74
2024/01/10 04:12:42;;;;;;;9.43;5.65;;;;;;;-2.54;32.33;102455.47;5010124;28;20384;-74
2024/01/10 04:15:11;;;;;;;10.73;5.97;;;;;;;-2.55;32.08;102452.78;5001827;28;20080;-73
2024/01/10 04:17:39;;;;;;;9.82;5.93;;;;;;;-2.57;31.80;102452.78;5004401;28;20452;-74
2024/01/10 04:20:08;;;;;;;10.48;5.28;;;;;;;-2.59;32.10;102451.91;5007731;28;20383;-73
2024/01/10 04:22:37;;;;;;;9.30;5.82;;;;;;;-2.63;32.15;102444.81;5010768;28;20125;-74
2024/01/10 04:25:07;;;;;;;12.52;6.32;;;;;;;-2.66;31.82;102443.94;5000308;28;20054;-73
2024/01/10 04:27:36;;;;;;;10.77;6.45;;;;;;;-2.68;31.87;102443.94;5010392;28;20049;-73
2024/01/10 04:30:06;;;;;;;11.63;6.20;;;;;;;-2.71;31.75;102443.97;5005712;28;20056;-73
2024/01/10 04:32:34;;;;;;;11.93;5.90;;;;;;;-2.72;31.97;102442.19;5003425;28;20132;-74
2024/01/10 04:35:03;;;;;;;11.73;5.80;;;;;;;-2.73;31.87;102446.66;4998535;28;20080;-74
2024/01/10 04:37:31;;;;;;;10.55;5.53;;;;;;;-2.75;31.82;102444.88;4987753;28;20045;-73
2024/01/10 04:39:59;;;;;;;10.50;5.70;;;;;;;-2.75;32.01;102442.22;5007123;28;20038;-74
2024/01/10 04:42:27;;;;;;;9.18;5.40;;;;;;;-2.75;32.35;102436.84;4991315;28;20126;-75
2024/01/10 04:44:56;;;;;;;9.77;5.68;;;;;;;-2.77;32.15;102433.28;5015770;28;20116;-74
2024/01/10 04:47:24;;;;;;;10.30;5.60;;;;;;;-2.78;32.36;102435.06;5016195;28;20068;-73
2024/01/10 04:49:52;;;;;;;9.73;5.68;;;;;;;-2.79;32.16;102436.00;5005621;28;20049;-74
2024/01/10 04:52:20;;;;;;;10.75;6.18;;;;;;;-2.79;32.23;102433.31;5007782;28;20437;-73
2024/01/10 04:54:49;;;;;;;9.45;5.32;;;;;;;-2.79;32.48;102443.16;5009810;28;20065;-73
2024/01/10 04:57:18;;;;;;;10.25;5.55;;;;;;;-2.79;32.50;102429.75;5007729;28;20057;-74
2024/01/10 04:59:46;;;;;;;10.80;5.97;;;;;;;-2.80;32.39;102436.91;5003411;28;20073;-74
2024/01/10 05:02:15;;;;;;;10.60;5.90;;;;;;;-2.78;32.27;102432.38;5010052;28;20056;-73
2024/01/10 05:04:43;;;;;;;10.23;6.00;;;;;;;-2.77;32.33;102430.59;5003367;28;20520;-73
2024/01/10 05:07:11;;;;;;;10.32;5.70;;;;;;;-2.78;32.45;102434.22;4997718;28;20113;-73
2024/01/10 05:09:39;;;;;;;10.77;6.03;;;;;;;-2.78;32.20;102434.22;4979422;28;20529;-73
2024/01/10 05:12:07;;;;;;;12.07;6.20;;;;;;;-2.77;32.32;102439.53;4983945;28;20605;-73
2024/01/10 05:14:35;;;;;;;8.80;5.45;;;;;;;-2.77;32.58;102447.56;4992991;28;20042;-73
2024/01/10 05:17:03;;;;;;;12.35;5.53;;;;;;;-2.75;32.71;102444.88;5003234;28;20274;-73
2024/01/10 05:19:32;;;;;;;11.15;6.05;;;;;;;-2.73;32.66;102448.44;4992890;28;20581;-74
2024/01/10 05:22:01;;;;;;;9.82;5.43;;;;;;;-2.72;32.76;102444.88;4993676;28;20046;-74
2024/01/10 05:24:31;;;;;;;10.52;5.85;;;;;;;-2.69;32.59;102443.97;5026146;28;20060;-74
2024/01/10 05:26:59;;;;;;;11.43;6.13;;;;;;;-2.68;32.57;102446.63;4985284;28;20525;-74
2024/01/10 05:29:27;;;;;;;9.20;5.32;;;;;;;-2.65;32.65;102435.88;5002751;28;20530;-73
2024/01/10 05:31:55;;;;;;;9.88;5.82;;;;;;;-2.63;32.92;102447.50;5003483;28;20513;-73
2024/01/10 05:34:24;;;;;;;12.10;6.00;;;;;;;-2.60;32.63;102438.50;4993254;28;20045;-74
2024/01/10 05:36:53;;;;;;;12.40;6.05;;;;;;;-2.58;32.69;102447.44;5005789;28;20496;-74
2024/01/10 05:39:21;;;;;;;8.68;5.18;;;;;;;-2.58;32.92;102442.97;5006694;28;20473;-74
2024/01/10 05:41:50;;;;;;;11.05;5.95;;;;;;;-2.56;32.90;102446.53;4992314;28;20061;-74
2024/01/10 05:44:18;;;;;;;10.98;5.95;;;;;;;-2.54;32.65;102446.53;4985421;28;20049;-73
2024/01/10 05:46:47;;;;;;;9.93;5.60;;;;;;;-2.53;32.91;102449.16;4994049;28;20046;-73
2024/01/10 05:49:15;;;;;;;10.02;5.85;;;;;;;-2.53;32.86;102449.16;5010711;28;20290;-73
2024/01/10 05:51:44;;;;;;;11.45;6.03;;;;;;;-2.53;32.64;102437.59;5006087;28;20052;-73
2024/01/10 05:54:13;;;;;;;11.70;5.95;;;;;;;-2.52;32.58;102444.69;4999399;28;20104;-73
2024/01/10 05:56:41;;;;;;;11.57;5.78;;;;;;;-2.53;32.84;102443.81;5008216;28;20504;-73
2024/01/10 05:59:09;;;;;;;9.77;5.78;;;;;;;-2.55;32.57;102436.72;5004448;28;20172;-73
2024/01/10 06:01:37;;;;;;;10.38;5.70;;;;;;;-2.53;33.04;102441.13;4985614;28;20048;-73
2024/01/10 06:04:05;;;;;;;11.43;5.65;;;;;;;-2.53;32.82;102429.56;5008108;28;20050;-72
2024/01/10 06:06:34;;;;;;;10.43;5.70;;;;;;;-2.54;33.18;102431.34;4989404;28;20145;-72
2024/01/10 06:09:02;;;;;;;10.07;5.78;;;;;;;-2.54;32.57;102435.81;5009892;28;20080;-72
2024/01/10 06:11:32;;;;;;;9.70;6.03;;;;;;;-2.54;32.92;102434.03;5006589;28;20046;-72
2024/01/10 06:14:00;;;;;;;10.55;5.78;;;;;;;-2.53;33.10;102429.56;5008602;28;20459;-71
2024/01/10 06:16:27;;;;;;;9.88;5.80;;;;;;;-2.54;32.96;102441.16;5001010;28;20051;-71
2024/01/10 06:18:55;;;;;;;9.30;5.90;;;;;;;-2.54;32.65;102442.06;5005480;28;20347;-71
2024/01/10 06:21:23;;;;;;;11.40;5.78;;;;;;;-2.53;32.97;102448.31;5008985;28;20061;-71
2024/01/10 06:23:51;;;;;;;10.38;5.72;;;;;;;-2.54;32.70;102450.09;4990803;28;20081;-71
2024/01/10 06:26:19;;;;;;;10.05;6.10;;;;;;;-2.53;32.96;102442.94;5006874;28;20042;-71
2024/01/10 06:28:49;;;;;;;10.30;5.95;;;;;;;-2.51;33.20;102441.13;4991379;28;20104;-71
2024/01/10 06:31:17;;;;;;;11.93;6.13;;;;;;;-2.52;32.78;102434.88;5008882;28;20057;-71
2024/01/10 06:33:45;;;;;;;10.65;5.93;;;;;;;-2.52;33.14;102437.56;5007080;28;20042;-71
2024/01/10 06:36:13;;;;;;;10.32;5.75;;;;;;;-2.50;32.84;102440.22;5005055;28;20128;-72
2024/01/10 06:38:40;;;;;;;12.10;6.00;;;;;;;-2.51;32.86;102431.28;5016302;28;20049;-72
2024/01/10 06:41:10;;;;;;;10.45;5.70;;;;;;;-2.49;32.91;102440.22;5002183;28;20472;-72
2024/01/10 06:43:38;;;;;;;9.52;5.35;;;;;;;-2.49;33.12;102442.91;5007839;28;20053;-72
2024/01/10 06:46:08;;;;;;;9.55;5.75;;;;;;;-2.47;32.95;102435.75;5003701;28;20335;-72
2024/01/10 06:48:36;;;;;;;10.32;5.53;;;;;;;-2.47;33.23;102430.38;4992040;28;20049;-72
2024/01/10 06:51:10;;;;;;;;;;;;;;;-2.66;33.14;102430.53;5006968;28;20472;-72
2024/01/10 06:53:38;;;;;;;10.73;5.47;;;;;;;-2.50;33.06;102434.88;5009603;28;20269;-72
2024/01/10 06:56:06;;;;;;;10.30;5.88;;;;;;;-2.49;33.19;102421.44;5008722;28;20453;-72
2024/01/10 06:58:34;;;;;;;9.48;5.78;;;;;;;-2.48;32.84;102433.06;5009257;28;20464;-72
2024/01/10 07:01:04;;;;;;;10.57;5.68;;;;;;;-2.50;32.86;102426.81;5003784;28;20037;-72
2024/01/10 07:03:34;;;;;;;12.15;6.28;;;;;;;-2.52;33.18;102429.50;5009546;28;20049;-72
2024/01/10 07:06:03;;;;;;;11.05;5.78;;;;;;;-2.55;33.20;102429.56;5009357;28;20045;-72
2024/01/10 07:08:31;;;;;;;11.93;6.28;;;;;;;-2.57;32.90;102431.34;4981457;28;20101;-74
2024/01/10 07:10:59;;;;;;;11.90;6.60;;;;;;;-2.58;33.34;102432.25;5005645;28;20069;-72
2024/01/10 07:13:27;;;;;;;13.05;6.47;;;;;;;-2.60;32.84;102417.06;4971781;28;20112;-72
2024/01/10 07:15:55;;;;;;;12.32;5.95;;;;;;;-2.64;32.72;102424.25;4995754;28;20057;-72
2024/01/10 07:18:23;;;;;;;12.70;6.45;;;;;;;-2.64;32.81;102431.41;5002590;28;20236;-72
2024/01/10 07:20:52;;;;;;;11.13;6.45;;;;;;;-2.66;32.88;102426.06;5001721;28;20069;-72
2024/01/10 07:23:20;;;;;;;12.93;6.70;;;;;;;-2.70;32.99;102424.31;5011332;28;20050;-72
2024/01/10 07:25:49;;;;;;;12.93;7.00;;;;;;;-2.74;32.86;102426.13;5005421;28;20046;-72
2024/01/10 07:28:18;;;;;;;10.32;5.90;;;;;;;-2.74;33.00;102430.59;5007383;28;20464;-73
2024/01/10 07:30:46;;;;;;;12.65;6.40;;;;;;;-2.77;33.05;102430.59;5006871;28;20049;-72
2024/01/10 07:33:15;;;;;;;10.73;6.07;;;;;;;-2.79;32.76;102436.00;5010361;28;20452;-72
2024/01/10 07:35:43;;;;;;;11.38;6.25;;;;;;;-2.78;32.95;102444.94;5002967;28;20050;-72
2024/01/10 07:38:13;;;;;;;10.70;5.97;;;;;;;-2.79;33.15;102441.34;5005770;28;20144;-73
2024/01/10 07:40:43;;;;;;;12.00;6.72;;;;;;;-2.80;33.19;102436.00;5012543;28;20485;-73
2024/01/10 07:43:12;;;;;;;12.88;5.50;;;;;;;-2.80;33.18;102441.38;5006714;28;20096;-72
2024/01/10 07:45:40;;;;;;;11.55;6.47;;;;;;;-2.80;32.83;102430.66;5008328;28;20047;-72
2024/01/10 07:48:08;;;;;;;11.45;6.32;;;;;;;-2.79;33.33;102435.09;4999991;28;20696;-72
2024/01/10 07:50:36;;;;;;;14.65;6.22;;;;;;;-2.79;33.02;102433.31;4991470;28;20145;-72
2024/01/10 07:53:05;;;;;;;12.25;6.15;;;;;;;-2.76;33.13;102435.06;5006423;28;20548;-72
2024/01/10 07:55:34;;;;;;;10.77;5.97;;;;;;;-2.76;33.27;102435.94;4999906;28;20429;-72
2024/01/10 07:58:02;;;;;;;11.95;6.20;;;;;;;-2.75;33.17;102429.69;5005161;28;20069;-72
2024/01/10 08:00:30;;;;;;;15.88;7.20;;;;;;;-2.72;33.18;102436.84;5012770;28;20517;-72
2024/01/10 08:02:58;;;;;;;12.45;6.47;;;;;;;-2.69;33.22;102442.16;4988767;28;20429;-73
2024/01/10 08:05:26;;;;;;;14.40;6.90;;;;;;;-2.66;33.20;102438.56;5003507;28;20100;-72
2024/01/10 08:07:55;;;;;;;11.10;6.32;;;;;;;-2.64;33.21;102442.13;4999014;28;20061;-72
2024/01/10 08:10:23;;;;;;;10.40;6.22;;;;;;;-2.62;33.42;102445.69;5005046;28;20038;-72
2024/01/10 08:12:52;;;;;;;11.60;6.20;;;;;;;-2.58;33.14;102447.44;5005273;28;20387;-72
2024/01/10 08:15:20;;;;;;;12.52;6.72;;;;;;;-2.58;33.42;102445.66;5010433;28;20468;-72
2024/01/10 08:17:49;;;;;;;12.40;6.25;;;;;;;-2.57;33.33;102449.22;4989765;28;20132;-72
2024/01/10 08:20:20;;;;;;;12.65;6.50;;;;;;;-2.54;33.55;102446.53;4989324;28;20039;-72
2024/01/10 08:22:50;;;;;;;10.82;6.25;;;;;;;-2.54;33.18;102458.13;5010798;28;20042;-72
2024/01/10 08:25:18;;;;;;;13.45;7.05;;;;;;;-2.51;33.19;102457.22;4989903;28;20030;-72
2024/01/10 08:27:46;;;;;;;15.93;7.28;;;;;;;-2.50;33.16;102457.19;5010892;28;20041;-72
2024/01/10 08:30:16;;;;;;;12.45;6.43;;;;;;;-2.45;33.45;102460.72;5002227;28;20046;-77
2024/01/10 08:32:45;;;;;;;13.40;6.68;;;;;;;-2.42;33.77;102468.75;5007497;28;20536;-72
2024/01/10 08:35:13;;;;;;;12.40;7.15;;;;;;;-2.38;33.77;102466.94;5008301;28;20494;-71
2024/01/10 08:37:42;;;;;;;14.70;7.53;;;;;;;-2.36;33.59;102471.38;5002124;28;20536;-72
2024/01/10 08:40:12;;;;;;;13.88;7.43;;;;;;;-2.32;33.41;102466.88;5006045;28;20041;-72
2024/01/10 08:42:40;;;;;;;11.35;7.07;;;;;;;-2.29;33.54;102472.25;5009785;28;20045;-72
2024/01/10 08:45:11;;;;;;;10.30;7.05;;;;;;;-2.25;33.76;102465.94;5003151;28;20074;-74
2024/01/10 08:47:40;;;;;;;15.32;8.18;;;;;;;-2.23;33.62;102464.13;5000092;28;20034;-74
2024/01/10 08:50:09;;;;;;;13.73;7.65;;;;;;;-2.20;33.95;102466.75;5005237;28;20046;-71
2024/01/10 08:52:38;;;;;;;14.00;7.20;;;;;;;-2.17;33.56;102477.47;5007909;28;20641;-71
2024/01/10 08:55:07;;;;;;;11.57;7.15;;;;;;;-2.14;33.95;102476.56;5004123;28;20076;-76
2024/01/10 08:57:40;;;;;;;14.60;7.53;;;;;;;-2.14;33.94;102476.56;5012256;28;20045;-76
2024/01/10 09:00:11;;;;;;;15.07;7.32;;;;;;;-2.11;33.72;102468.47;4981838;28;20049;-76
2024/01/10 09:02:41;;;;;;;13.32;7.20;;;;;;;-2.08;33.95;102474.72;5009974;28;20414;-76
2024/01/10 09:05:09;;;;;;;12.27;7.18;;;;;;;-2.05;33.96;102468.44;5011499;28;20050;-76
2024/01/10 09:07:39;;;;;;;12.52;6.22;;;;;;;-2.03;33.94;102475.53;4994147;28;20046;-76
2024/01/10 09:10:08;;;;;;;12.15;6.78;;;;;;;-1.99;33.97;102473.72;4991380;28;20046;-76
2024/01/10 09:12:36;;;;;;;13.23;6.68;;;;;;;-1.96;33.70;102471.91;4991411;28;20124;-76
2024/01/10 09:15:08;;;;;;;12.93;6.90;;;;;;;-1.94;33.89;102475.44;5011729;28;20610;-76
2024/01/10 09:17:36;;;;;;;12.48;6.75;;;;;;;-1.91;33.72;102471.88;5008267;28;20236;-77
2024/01/10 09:20:06;;;;;;;12.95;6.93;;;;;;;-1.86;33.72;102469.13;5011678;28;20577;-77
2024/01/10 09:22:34;;;;;;;12.38;6.43;;;;;;;-1.84;33.66;102475.38;5006370;28;20138;-77
2024/01/10 09:25:05;;;;;;;12.27;7.03;;;;;;;-1.81;33.83;102470.88;5001323;28;20062;-75
2024/01/10 09:27:33;;;;;;;12.70;6.68;;;;;;;-1.79;33.93;102479.75;4975523;28;20039;-72
2024/01/10 09:30:08;;;;;;;12.27;6.82;;;;;;;-1.74;34.00;102488.69;4993186;28;20043;-71
2024/01/10 09:32:36;;;;;;;13.70;7.35;;;;;;;-1.71;33.92;102487.78;4991738;28;20042;-72
2024/01/10 09:35:06;;;;;;;12.00;7.07;;;;;;;-1.66;33.60;102491.28;4990015;28;20046;-72
2024/01/10 09:37:35;;;;;;;13.93;7.38;;;;;;;-1.63;34.02;102488.56;4990979;28;20047;-72
2024/01/10 09:40:03;;;;;;;14.05;6.78;;;;;;;-1.60;33.98;102489.41;4994562;28;20061;-72
2024/01/10 09:42:33;;;;;;;11.75;6.63;;;;;;;-1.55;34.09;102489.38;5010655;28;20453;-72
2024/01/10 09:45:03;;;;;;;12.38;6.35;;;;;;;-1.50;34.16;102490.19;5006048;28;20092;-72
2024/01/10 09:47:33;;;;;;;11.30;6.32;;;;;;;-1.44;33.92;102487.44;4991185;28;20046;-71
2024/01/10 09:50:03;;;;;;;12.63;6.82;;;;;;;-1.40;33.87;102496.34;4991613;28;20105;-72
2024/01/10 09:52:40;;;;;;;12.52;6.88;;;;;;;-1.35;33.74;102495.38;4990641;28;20188;-72
2024/01/10 09:55:09;;;;;;;14.35;7.63;;;;;;;-1.31;33.70;102496.25;4973572;28;20066;-73
2024/01/10 09:57:38;;;;;;;11.98;7.13;;;;;;;-1.25;33.83;102488.09;4973859;28;20584;-72
2024/01/10 10:00:10;;;;;;;13.60;7.82;;;;;;;-1.20;34.02;102494.28;4973653;28;20051;-72
2024/01/10 10:02:40;;;;;;;12.43;7.18;;;;;;;-1.15;33.99;102492.47;4991403;28;20042;-73
2024/01/10 10:05:13;;;;;;;11.85;6.93;;;;;;;-1.08;33.71;102487.88;4991271;28;20035;-73
2024/01/10 10:07:46;;;;;;;11.65;7.10;;;;;;;-1.03;33.54;102483.31;4991809;28;20088;-73
2024/01/10 10:10:16;;;;;;;14.32;6.78;;;;;;;-0.97;34.15;102483.28;4990919;28;20137;-72
2024/01/10 10:12:45;;;;;;;13.15;6.43;;;;;;;-0.91;33.90;102489.44;4990690;28;20085;-72
2024/01/10 10:15:15;;;;;;;11.27;6.30;;;;;;;-0.83;34.01;102492.91;4991104;28;20050;-73
2024/01/10 10:17:47;;;;;;;12.90;6.80;;;;;;;-0.75;33.88;102484.72;4973606;28;20510;-72
2024/01/10 10:20:21;;;;;;;11.23;6.28;;;;;;;-0.68;33.29;102488.22;4990550;28;20074;-73
2024/01/10 10:23:01;;;;;;;10.98;6.45;;;;;;;-0.60;32.58;102484.50;4990878;28;20050;-73
2024/01/10 10:25:32;;;;;;;11.77;6.07;;;;;;;-0.56;33.54;102486.25;4973702;28;20050;-73
2024/01/10 10:28:01;;;;;;;13.00;6.57;;;;;;;-0.50;34.02;102485.25;4977318;28;20533;-73
2024/01/10 10:30:31;;;;;;;11.35;6.15;;;;;;;-0.45;33.65;102492.31;4990347;28;20053;-72
2024/01/10 10:32:59;;;;;;;14.00;6.72;;;;;;;-0.39;33.77;102495.84;4990569;28;20069;-73
2024/01/10 10:35:27;;;;;;;9.88;5.93;;;;;;;-0.34;33.58;102493.94;4990499;28;20053;-72
2024/01/10 10:38:09;;;;;;;12.30;6.32;;;;;;;-0.27;33.44;102492.94;4991100;28;20283;-73
2024/01/10 10:40:38;;;;;;;12.35;6.30;;;;;;;-0.24;33.57;102488.41;4993429;28;20050;-73
2024/01/10 10:43:13;;;;;;;11.35;5.95;;;;;;;-0.17;33.36;102478.41;5010177;28;20417;-73
2024/01/10 10:45:47;;;;;;;11.63;6.07;;;;;;;-0.10;33.28;102490.84;5010270;28;20049;-73
2024/01/10 10:48:19;;;;;;;9.95;6.18;;;;;;;-0.07;33.16;102483.63;5009817;28;20108;-72
2024/01/10 10:50:56;;;;;;;11.75;5.95;;;;;;;-0.02;32.82;102473.66;5009979;28;20045;-73
2024/01/10 10:53:28;;;;;;;11.90;6.15;;;;;;;0.03;32.98;102476.25;5009586;28;20112;-73
2024/01/10 10:55:58;;;;;;;9.32;5.68;;;;;;;0.06;33.31;102473.50;5010038;28;20054;-73
2024/01/10 10:58:27;;;;;;;10.55;5.95;;;;;;;0.10;33.20;102477.94;4991849;28;20038;-73
2024/01/10 11:00:57;;;;;;;11.88;6.63;;;;;;;0.17;33.54;102468.81;5009866;28;20390;-73
2024/01/10 11:03:29;;;;;;;10.40;6.32;;;;;;;0.22;33.41;102482.19;5009611;28;20065;-73
2024/01/10 11:05:59;;;;;;;11.32;6.43;;;;;;;0.28;33.69;102477.56;5009728;28;20130;-73
2024/01/10 11:08:33;;;;;;;9.85;6.07;;;;;;;0.34;33.23;102474.78;5009711;28;20419;-73
2024/01/10 11:11:07;;;;;;;11.82;6.03;;;;;;;0.41;33.07;102480.03;5010588;28;20050;-73
2024/01/10 11:13:53;;;;;;;10.13;5.88;;;;;;;0.48;32.42;102482.59;5009635;28;20460;-73
2024/01/10 11:16:57;;;;;;;9.05;5.45;;;;;;;0.49;32.02;102480.78;5009523;28;20045;-73
2024/01/10 11:19:52;;;;;;;9.30;5.68;;;;;;;0.57;32.09;102473.44;4968345;28;20073;-73
2024/01/10 11:22:39;;;;;;;10.93;6.00;;;;;;;0.64;32.32;102473.28;5009708;28;20100;-73
2024/01/10 11:25:08;;;;;;;11.57;5.72;;;;;;;0.67;33.25;102475.91;4990021;28;20473;-73
2024/01/10 11:27:37;;;;;;;11.13;6.18;;;;;;;0.73;33.25;102464.09;4989757;28;20133;-73
2024/01/10 11:30:07;;;;;;;11.10;5.97;;;;;;;0.78;33.25;102464.00;4972533;28;20050;-73
2024/01/10 11:32:36;;;;;;;9.95;5.75;;;;;;;0.80;33.14;102460.34;5009566;28;20042;-74
2024/01/10 11:35:10;;;;;;;11.75;5.95;;;;;;;0.86;33.06;102460.22;5009805;28;20054;-73